Flight Track Log - Related Links

Times and Time Zones

All times are in EDT time to prevent confusion due to time zone crossing. See the SKW5550 flight status page for this flight to view local times or setup timezone preferences in your user account.

Time Position Orientation Groundspeed Altitude Reporting Facility
EDT Latitude Longitude Course Direction KTS MPH feet Rate Location/Type
Sun 09:46:38 AM 44.5397 -108.9908 160° South 156 180 6,500  Level Salt Lake Center
Sun 09:47:39 AM 44.5864 -108.9481 33° Northeast 229 264 8,500 2,361 Climbing Salt Lake Center
Sun 09:48:00 AM 44.3421 -108.8419 159° South  Level Estimated
Sun 09:48:40 AM 44.6353 -109.0036 321° Northwest 244 281 11,300  Level Salt Lake Center
Sun 09:49:00 AM 44.2529 -108.7514 157° South  Level Estimated
Sun 09:49:41 AM 44.5908 -109.0050 181° South 230 265 13,900  Level Salt Lake Center
Sun 09:50:00 AM 44.1514 -108.6916 157° South  Level FlightAware Approximate
Sun 09:50:42 AM 44.5472 -108.9206 126° Southeast 262 302 15,600  Level Salt Lake Center
Sun 09:51:00 AM 44.0625 -108.6010 157° South  Level Estimated
Sun 09:51:43 AM 44.4711 -108.8797 159° South 289 333 17,000  Level Salt Lake Center
Sun 09:52:00 AM 43.9590 -108.5482 160° South  Level FlightAware Approximate
Sun 09:52:44 AM 44.3881 -108.8311 157° South 312 359 18,400  Level Salt Lake Center
Sun 09:53:45 AM 44.2994 -108.7803 158° South 333 383 20,300 1,672 Climbing Salt Lake Center
Sun 09:54:46 AM 44.2100 -108.7278 157° South 345 397 21,800 1,488 Climbing Salt Lake Center
Sun 09:55:46 AM 44.1181 -108.6764 158° South 352 405 23,300 1,388 Climbing Salt Lake Center
Sun 09:56:47 AM 44.0247 -108.6225 157° South 361 415 24,600 1,279 Climbing Salt Lake Center
Sun 09:57:48 AM 43.9097 -108.5550 157° South 375 432 25,900 1,131 Climbing Salt Lake Center
Sun 09:58:49 AM 43.8108 -108.4983 158° South 383 441 26,900 976 Climbing Salt Lake Center
Sun 09:59:51 AM 43.7119 -108.4417 157° South 385 443 27,900 927 Climbing Salt Lake Center
Sun 10:00:52 AM 43.6119 -108.3839 157° South 389 448 28,800 984 Climbing Salt Lake Center
Sun 10:01:53 AM 43.5122 -108.3297 158° South 387 445 29,900 934 Climbing Salt Lake Center
Sun 10:02:54 AM 43.4172 -108.2556 150° Southeast 393 452 30,700 541 Climbing Salt Lake Center
Sun 10:03:55 AM 43.3278 -108.1578 141° Southeast 409 471 31,000 148 Climbing Salt Lake Center
Sun 10:04:56 AM 43.2344 -108.0606 143° Southeast 419 482 31,000  Level Salt Lake Center
Sun 10:05:57 AM 43.1378 -107.9586 142° Southeast 435 501 31,000  Level Salt Lake Center
Sun 10:06:59 AM 43.0406 -107.8547 142° Southeast 443 510 31,000  Level Salt Lake Center
Sun 10:08:00 AM 42.9356 -107.7414 142° Southeast 446 513 31,000  Level Salt Lake Center
Sun 10:09:01 AM 42.8264 -107.6289 143° Southeast 443 510 31,000  Level Salt Lake Center
Sun 10:10:02 AM 42.7344 -107.5331 143° Southeast 438 504 31,000  Level Salt Lake Center
Sun 10:11:03 AM 42.6406 -107.4358 143° Southeast 440 506 31,000  Level Salt Lake Center
Sun 10:12:04 AM 42.5314 -107.3247 143° Southeast 439 505 31,000  Level Salt Lake Center
Sun 10:13:05 AM 42.4364 -107.2292 143° Southeast 441 507 31,000  Level Salt Lake Center
Sun 10:13:50 AM 42.3589 -107.1511 143° Southeast 439 505 31,000  Level Denver Center
Sun 10:14:51 AM 42.2656 -107.0569 143° Southeast 437 503 31,000  Level Denver Center
Sun 10:15:53 AM 42.1561 -106.9478 144° Southeast 437 503 31,000  Level Denver Center
Sun 10:16:54 AM 42.0631 -106.8536 143° Southeast 436 502 31,000  Level Denver Center
Sun 10:17:56 AM 41.9694 -106.7628 144° Southeast 433 498 31,000 -195 Level Denver Center
Sun 10:18:57 AM 41.8625 -106.6561 143° Southeast 428 493 30,600 -439 Descending Denver Center
Sun 10:19:59 AM 41.7689 -106.5647 144° Southeast 431 496 30,100 -488 Descending Denver Center
Sun 10:21:00 AM 41.6628 -106.4606 144° Southeast 435 501 29,600 -488 Descending Denver Center
Sun 10:22:02 AM 41.5714 -106.3706 144° Southeast 430 495 29,100 -585 Descending Denver Center
Sun 10:23:03 AM 41.4658 -106.2667 144° Southeast 424 488 28,400 -634 Descending Denver Center
Sun 10:24:05 AM 41.3769 -106.1817 144° Southeast 415 478 27,800 -677 Descending Denver Center
Sun 10:25:07 AM 41.2739 -106.0817 144° Southeast 412 474 27,000 -390 Descending Denver Center
Sun 10:26:08 AM 41.1886 -105.9989 144° Southeast 402 463 27,000  Level Denver Center
Sun 10:27:10 AM 41.1036 -105.9178 144° Southeast 395 455 27,000 -97 Level Denver Center
Sun 10:28:12 AM 41.0103 -105.8286 144° Southeast 394 453 26,800 -829 Descending Denver Center
Sun 10:29:13 AM 40.9228 -105.7444 144° Southeast 391 450 25,300 -1,463 Descending Denver Center
Sun 10:30:15 AM 40.8344 -105.6611 144° Southeast 390 449 23,800 -1,597 Descending Denver Center
Sun 10:31:17 AM 40.7328 -105.5633 144° Southeast 379 436 22,000 -1,597 Descending Denver Center
Sun 10:32:19 AM 40.6508 -105.4861 144° Southeast 368 423 20,500 -1,403 Descending Denver Center
Sun 10:33:21 AM 40.5792 -105.3931 135° Southeast 367 422 19,100 -1,171 Descending Denver Center
Sun 10:34:22 AM 40.5203 -105.2886 127° Southeast 359 413 18,100 -1,220 Descending Denver Center
Sun 10:35:24 AM 40.4594 -105.1761 125° Southeast 353 406 16,600 -1,452 Descending Denver Center
Sun 10:36:26 AM 40.4047 -105.0761 126° Southeast 340 391 15,100 -1,548 Descending Denver Center
Sun 10:37:28 AM 40.3992 -104.9519 93° East 316 364 13,400 -1,258 Descending Denver Center
Sun 10:38:30 AM 40.3961 -104.8542 92° East 280 322 12,500 -1,016 Descending Denver Center
Sun 10:39:32 AM 40.3872 -104.7614 97° East 262 302 11,300 -1,210 Descending Denver Center
Sun 10:40:34 AM 40.3244 -104.7114 149° Southeast 246 283 10,000 -629 Descending Denver Center
Sun 10:41:36 AM 40.2686 -104.6683 150° Southeast 236 272 10,000  Level Denver Center
Sun 10:42:38 AM 40.2044 -104.6542 170° South 218 251 10,000  Level Denver Center
Sun 10:43:40 AM 40.1400 -104.6558 181° South 230 265 10,000 -242 Level Denver Center
Sun 10:44:42 AM 40.0717 -104.6583 182° South 227 261 9,500 -823 Descending Denver Center
Sun 10:45:44 AM 40.0089 -104.6586 180° South 226 260 8,300 -1,161 Descending Denver Center
Sun 10:46:46 AM 39.9461 -104.6586 180° South 226 260 7,100 -1,065 Descending Denver Center
Sun 10:47:48 AM 39.8944 -104.6586 180° South 165 190 6,100 -823 Descending Denver Center
Sun 10:48:50 AM 39.8544 -104.6603 182° South 145 167 5,400 -677 Descending Denver Center

Login

Don't have an account? Register now (free) for customized features, flight alerts, and more!